Terminal Aerodrome Forecast
Issued by NWS

Home | Current Version | Previous Version | Text Only | Print | Product List | Glossary On
Versions: 1 2 3 4 5 6 7 8 9 10 11 12 13 14 15 16 17 18 19 20 21
000
FTUS42 KILM 310533
TAFCRE
TAF
KCRE 310533Z 3106/0106 12006KT P6SM SCT015 BKN050
     FM310900 VRB04KT 4SM BR VCSH SCT007 BKN015
     FM311300 07006KT P6SM VCTS SCT015CB BKN025
     FM312200 14008KT P6SM VCSH SCT030 BKN050
     FM010200 07004KT P6SM VCSH BKN050 OVC100=

USA.gov is the U.S. government's official web portal to all federal, state and local government web resources and services.